Time;durP1;ratioP1;P1;durP2;ratioP2;P2;SDS_P1;SDS_P2;PMS_P1;PMS_P2;Temp;Humidity;BMP_temperature;BMP_pressure;BME280_temperature;BME280_humidity;BME280_pressure;Samples;Min_cycle;Max_cycle;Signal;HPM_P1;HPM_P2
2022/07/28 00:01:52;;;;;;;9.27;6.00;;;12.80;99.90;;;;;;5035753;28;20182;-55
2022/07/28 00:04:18;;;;;;;6.37;5.87;;;12.80;99.90;;;;;;5033346;28;20186;-54
2022/07/28 00:06:44;;;;;;;6.80;6.30;;;12.70;99.90;;;;;;5029583;28;20187;-56
2022/07/28 00:09:09;;;;;;;5.93;5.53;;;12.70;99.90;;;;;;5029996;28;20194;-57
2022/07/28 00:11:35;;;;;;;6.43;5.87;;;12.60;99.90;;;;;;5033757;28;20559;-56
2022/07/28 00:14:00;;;;;;;7.20;6.70;;;12.60;99.90;;;;;;5036942;28;20179;-57
2022/07/28 00:16:26;;;;;;;7.10;6.40;;;12.60;99.90;;;;;;5036324;28;20307;-55
2022/07/28 00:18:51;;;;;;;7.00;6.33;;;12.50;99.90;;;;;;5039591;28;20194;-52
2022/07/28 00:21:18;;;;;;;6.50;6.03;;;12.50;99.90;;;;;;5047346;28;20190;-55
2022/07/28 00:23:43;;;;;;;6.70;6.30;;;12.50;99.90;;;;;;5048262;28;20844;-53
2022/07/28 00:26:10;;;;;;;6.50;5.93;;;12.40;99.90;;;;;;5047913;28;20482;-55
2022/07/28 00:28:36;;;;;;;7.00;6.43;;;12.40;99.90;;;;;;5045256;28;20952;-55
2022/07/28 00:31:03;;;;;;;9.43;6.67;;;12.40;99.90;;;;;;5034365;28;20571;-55
2022/07/28 00:33:28;;;;;;;6.47;5.97;;;12.40;99.90;;;;;;5040668;28;20700;-56
2022/07/28 00:35:54;;;;;;;7.30;6.63;;;12.30;99.90;;;;;;5046174;28;20557;-54
2022/07/28 00:38:19;;;;;;;6.30;5.80;;;12.20;99.90;;;;;;5028804;28;20195;-56
2022/07/28 00:43:29;;;;;;;6.70;6.10;;;12.20;99.90;;;;;;5037764;28;20245;-51
2022/07/28 00:45:55;;;;;;;6.60;6.10;;;12.10;99.90;;;;;;5040713;28;20440;-54
2022/07/28 00:48:20;;;;;;;7.30;6.70;;;12.10;99.90;;;;;;5039587;28;20276;-55
2022/07/28 00:50:46;;;;;;;8.50;7.07;;;12.00;99.90;;;;;;5040950;28;20194;-51
2022/07/28 00:53:12;;;;;;;7.67;6.97;;;12.00;99.90;;;;;;5047016;28;20185;-53
2022/07/28 00:55:38;;;;;;;7.23;6.53;;;12.00;99.90;;;;;;5049695;28;20179;-56
2022/07/28 00:58:04;;;;;;;6.90;6.33;;;12.00;99.90;;;;;;5033206;28;20187;-55
2022/07/28 01:00:30;;;;;;;7.97;6.23;;;12.00;99.90;;;;;;5039284;28;20560;-56
2022/07/28 01:02:56;;;;;;;6.70;6.07;;;11.90;99.90;;;;;;5036644;28;20497;-55
2022/07/28 01:05:23;;;;;;;7.23;6.73;;;11.90;99.90;;;;;;5051808;28;20186;-51
2022/07/28 01:08:06;;;;;;;8.20;7.50;;;11.80;99.90;;;;;;5036227;28;20462;-56
2022/07/28 01:11:12;;;;;;;7.60;7.00;;;11.80;99.90;;;;;;5046134;28;20452;-53
2022/07/28 01:13:48;;;;;;;7.50;6.80;;;11.70;99.90;;;;;;5010905;28;20576;-53
2022/07/28 01:16:14;;;;;;;7.33;6.73;;;11.70;99.90;;;;;;5032001;28;20448;-51
2022/07/28 01:19:03;;;;;;;8.00;7.33;;;11.70;99.90;;;;;;5038058;28;20456;-56
2022/07/28 01:21:33;;;;;;;8.03;7.40;;;11.60;99.90;;;;;;5025478;28;20455;-56
2022/07/28 01:23:59;;;;;;;7.10;6.50;;;11.60;99.90;;;;;;5047488;28;20476;-51
2022/07/28 01:26:55;;;;;;;7.30;6.67;;;11.60;99.90;;;;;;5039517;28;20522;-54
2022/07/28 01:29:45;;;;;;;7.37;6.77;;;11.60;99.90;;;;;;5039889;28;20187;-54
2022/07/28 01:32:24;;;;;;;7.13;6.50;;;11.50;99.90;;;;;;5033463;28;20409;-51
2022/07/28 01:34:58;;;;;;;8.03;6.90;;;11.50;99.90;;;;;;5043995;28;20436;-56
2022/07/28 01:37:28;;;;;;;8.23;7.13;;;11.50;99.90;;;;;;5034813;28;20444;-53
2022/07/28 01:39:57;;;;;;;6.93;6.33;;;11.40;99.90;;;;;;5032604;28;20430;-54
2022/07/28 01:42:27;;;;;;;7.23;6.63;;;11.30;99.90;;;;;;5037138;28;20445;-54
2022/07/28 01:44:56;;;;;;;8.07;7.07;;;11.30;99.90;;;;;;5022798;28;20441;-56
2022/07/28 01:47:24;;;;;;;7.33;6.43;;;11.20;99.90;;;;;;5031106;28;20472;-55
2022/07/28 01:49:51;;;;;;;7.70;6.90;;;11.20;99.90;;;;;;5033672;28;20505;-54
2022/07/28 01:52:18;;;;;;;7.47;6.60;;;11.20;99.90;;;;;;5041032;28;20413;-56
2022/07/28 01:54:46;;;;;;;6.93;6.33;;;11.20;99.90;;;;;;5050820;28;20427;-57
2022/07/28 01:57:13;;;;;;;7.27;6.63;;;11.20;99.90;;;;;;5045996;28;20529;-55
2022/07/28 01:59:41;;;;;;;7.27;6.67;;;11.10;99.90;;;;;;5030345;28;20474;-53
2022/07/28 02:02:08;;;;;;;6.60;6.07;;;11.10;99.90;;;;;;5050140;28;20417;-53
2022/07/28 02:04:37;;;;;;;6.60;6.10;;;11.10;99.90;;;;;;5040074;28;20440;-55
2022/07/28 02:07:04;;;;;;;7.47;6.77;;;11.00;99.90;;;;;;5034959;28;20992;-53
2022/07/28 02:09:30;;;;;;;7.60;6.90;;;10.90;99.90;;;;;;5045722;28;20432;-51
2022/07/28 02:11:58;;;;;;;8.27;6.50;;;10.90;99.90;;;;;;5033286;28;20429;-57
2022/07/28 02:14:26;;;;;;;7.17;6.57;;;10.90;99.90;;;;;;5045723;28;20417;-55
2022/07/28 02:17:03;;;;;;;7.60;6.90;;;10.80;99.90;;;;;;5040624;28;20496;-53
2022/07/28 02:19:30;;;;;;;9.80;6.20;;;10.80;99.90;;;;;;5032826;28;20885;-54
2022/07/28 02:21:56;;;;;;;7.27;6.57;;;10.80;99.90;;;;;;5048336;28;20417;-54
2022/07/28 02:24:27;;;;;;;7.13;6.47;;;10.80;99.90;;;;;;5033141;28;20451;-51
2022/07/28 02:26:59;;;;;;;6.90;6.30;;;10.80;99.90;;;;;;5045084;28;20459;-57
2022/07/28 02:29:27;;;;;;;6.97;6.27;;;10.80;99.90;;;;;;5046028;28;20428;-53
2022/07/28 02:32:07;;;;;;;7.23;6.53;;;10.70;99.90;;;;;;5044162;28;21168;-53
2022/07/28 02:34:37;;;;;;;8.17;6.87;;;10.70;99.90;;;;;;5032633;28;20575;-52
2022/07/28 02:37:04;;;;;;;7.00;6.40;;;10.70;99.90;;;;;;5035207;28;20429;-54
2022/07/28 02:39:40;;;;;;;6.90;6.30;;;10.70;99.90;;;;;;5050101;28;20413;-56
2022/07/28 02:42:12;;;;;;;7.47;6.77;;;10.70;99.90;;;;;;5045830;28;20508;-56
2022/07/28 02:44:45;;;;;;;7.17;6.57;;;10.70;99.90;;;;;;5039758;28;20535;-56
2022/07/28 02:47:15;;;;;;;7.00;6.40;;;10.60;99.90;;;;;;5046120;28;20950;-56
2022/07/28 02:49:42;;;;;;;7.57;6.77;;;10.50;99.90;;;;;;5029180;28;20444;-52
2022/07/28 02:52:10;;;;;;;6.73;6.20;;;10.50;99.90;;;;;;5049117;28;20421;-53
2022/07/28 02:54:36;;;;;;;7.10;6.40;;;10.50;99.90;;;;;;5035853;28;20911;-52
2022/07/28 02:57:03;;;;;;;6.87;6.37;;;10.40;99.90;;;;;;5028394;28;20438;-52
2022/07/28 02:59:30;;;;;;;7.20;6.50;;;10.40;99.90;;;;;;5035890;28;20844;-52
2022/07/28 03:01:57;;;;;;;7.40;6.80;;;10.40;99.90;;;;;;5026261;28;20502;-51
2022/07/28 03:07:09;;;;;;;7.00;6.30;;;10.40;99.90;;;;;;5017634;28;20556;-57
2022/07/28 03:09:47;;;;;;;7.13;6.43;;;10.30;99.90;;;;;;5040544;28;20429;-52
2022/07/28 03:12:13;;;;;;;7.37;6.70;;;10.30;99.90;;;;;;5049415;28;20432;-56
2022/07/28 03:14:39;;;;;;;7.40;6.70;;;10.20;99.90;;;;;;5049391;28;20424;-55
2022/07/28 03:17:05;;;;;;;6.90;6.17;;;10.20;99.90;;;;;;5029874;28;20437;-56
2022/07/28 03:19:31;;;;;;;11.70;6.60;;;10.20;99.90;;;;;;5029973;28;20182;-56
2022/07/28 03:21:56;;;;;;;7.57;6.87;;;10.20;99.90;;;;;;5049191;28;20489;-53
2022/07/28 03:24:24;;;;;;;7.47;6.83;;;10.20;99.90;;;;;;5049454;28;20194;-52
2022/07/28 03:27:01;;;;;;;7.80;6.40;;;10.20;99.90;;;;;;5033620;28;20201;-57
2022/07/28 03:29:29;;;;;;;7.10;6.50;;;10.20;99.90;;;;;;5045854;28;20501;-52
2022/07/28 03:31:58;;;;;;;8.03;7.07;;;10.10;99.90;;;;;;5044306;28;20413;-55
2022/07/28 03:34:24;;;;;;;7.37;6.77;;;10.10;99.90;;;;;;5048077;28;20421;-54
2022/07/28 03:37:09;;;;;;;8.20;6.60;;;10.10;99.90;;;;;;5029290;28;20422;-56
2022/07/28 03:39:39;;;;;;;7.47;6.77;;;10.10;99.90;;;;;;5027965;28;20430;-56
2022/07/28 03:42:07;;;;;;;9.70;7.37;;;10.20;99.90;;;;;;5040410;28;20904;-53
2022/07/28 03:44:34;;;;;;;6.70;6.20;;;10.10;99.90;;;;;;5029379;28;20472;-55
2022/07/28 03:46:59;;;;;;;7.60;6.80;;;10.20;99.90;;;;;;5044976;28;20430;-54
2022/07/28 03:49:25;;;;;;;9.63;7.00;;;10.20;99.90;;;;;;5038819;28;20444;-53
2022/07/28 03:51:51;;;;;;;7.77;7.07;;;10.20;99.90;;;;;;5048940;28;20186;-55
2022/07/28 03:54:16;;;;;;;7.73;7.07;;;10.10;99.90;;;;;;5034472;28;20179;-51
2022/07/28 03:56:42;;;;;;;9.57;8.10;;;10.10;99.90;;;;;;5032903;28;20621;-54
2022/07/28 03:59:10;;;;;;;7.67;6.93;;;10.20;99.90;;;;;;5040843;28;20602;-53
2022/07/28 04:01:35;;;;;;;8.20;7.40;;;10.20;99.90;;;;;;5036160;28;20986;-56
2022/07/28 04:04:01;;;;;;;8.00;7.30;;;10.20;99.90;;;;;;5039668;28;20482;-54
2022/07/28 04:06:26;;;;;;;7.87;6.63;;;10.20;99.90;;;;;;5044865;28;20222;-55
2022/07/28 04:08:52;;;;;;;7.63;6.97;;;10.20;99.90;;;;;;5026197;28;20268;-53
2022/07/28 04:11:18;;;;;;;7.03;6.30;;;10.30;99.90;;;;;;5043573;28;20186;-54
2022/07/28 04:13:43;;;;;;;7.50;6.73;;;10.30;99.90;;;;;;5038876;28;20193;-54
2022/07/28 04:16:09;;;;;;;7.93;7.20;;;10.30;99.90;;;;;;5042948;28;20179;-54
2022/07/28 04:18:34;;;;;;;8.07;7.37;;;10.40;99.90;;;;;;5032941;28;20214;-57
2022/07/28 04:21:00;;;;;;;8.17;6.93;;;10.40;99.90;;;;;;5033775;28;20286;-56
2022/07/28 04:23:26;;;;;;;8.27;7.37;;;10.30;99.90;;;;;;5033011;28;20186;-55
2022/07/28 04:25:51;;;;;;;8.60;7.90;;;10.30;99.90;;;;;;5032063;28;20521;-55
2022/07/28 04:28:17;;;;;;;8.07;6.90;;;10.40;99.90;;;;;;5029501;28;20752;-52
2022/07/28 04:30:42;;;;;;;7.60;6.90;;;10.40;99.90;;;;;;5030539;28;20207;-54
2022/07/28 04:33:08;;;;;;;8.17;7.47;;;10.40;99.90;;;;;;5033452;28;20190;-55
2022/07/28 04:35:35;;;;;;;8.90;8.10;;;10.50;99.90;;;;;;5030440;28;20198;-54
2022/07/28 04:38:00;;;;;;;8.90;8.10;;;10.50;99.90;;;;;;5038239;28;20167;-57
2022/07/28 04:40:26;;;;;;;8.50;7.60;;;10.50;99.90;;;;;;5033626;28;20448;-53
2022/07/28 04:42:53;;;;;;;8.00;7.30;;;10.60;99.90;;;;;;5031588;28;20179;-52
2022/07/28 04:45:19;;;;;;;8.07;7.37;;;10.60;99.90;;;;;;5032211;28;20463;-52
2022/07/28 04:47:45;;;;;;;9.63;7.80;;;10.70;99.90;;;;;;5041924;28;20468;-56
2022/07/28 04:50:14;;;;;;;10.03;8.60;;;10.70;99.90;;;;;;5051966;28;20429;-55
2022/07/28 04:52:40;;;;;;;9.00;8.20;;;10.80;99.90;;;;;;5040174;28;20430;-55
2022/07/28 04:55:06;;;;;;;9.37;8.13;;;10.80;99.90;;;;;;5038066;28;20550;-53
2022/07/28 04:57:32;;;;;;;9.13;8.40;;;10.80;99.90;;;;;;5051074;28;20591;-53
2022/07/28 05:00:01;;;;;;;10.23;9.13;;;10.90;99.90;;;;;;5039694;28;20562;-57
2022/07/28 05:02:26;;;;;;;10.60;9.60;;;10.90;99.90;;;;;;5031688;28;20193;-54
2022/07/28 05:04:52;;;;;;;10.53;9.43;;;11.00;99.90;;;;;;5048500;28;20425;-53
2022/07/28 05:07:18;;;;;;;9.10;8.20;;;11.00;99.90;;;;;;5033697;28;20215;-54
2022/07/28 05:09:44;;;;;;;9.47;8.57;;;11.10;99.90;;;;;;5048585;28;20428;-55
2022/07/28 05:12:10;;;;;;;9.20;8.40;;;11.20;99.90;;;;;;5035604;28;20499;-57
2022/07/28 05:14:36;;;;;;;9.67;8.77;;;11.40;99.90;;;;;;5048648;28;20901;-57
2022/07/28 05:17:01;;;;;;;10.23;9.30;;;11.50;99.90;;;;;;5039430;28;20863;-56
2022/07/28 05:19:27;;;;;;;12.13;10.87;;;11.60;99.90;;;;;;5037538;28;20265;-55
2022/07/28 05:21:53;;;;;;;13.57;11.70;;;11.50;99.90;;;;;;5039614;28;20426;-54
2022/07/28 05:24:18;;;;;;;12.67;11.57;;;11.60;99.90;;;;;;5047917;28;20179;-52
2022/07/28 05:26:44;;;;;;;13.30;11.10;;;11.70;99.90;;;;;;5040378;28;20187;-57
2022/07/28 05:29:10;;;;;;;14.27;11.93;;;11.90;99.90;;;;;;5033768;28;20297;-57
2022/07/28 05:31:35;;;;;;;14.00;12.70;;;11.90;99.90;;;;;;5047699;28;20919;-55
2022/07/28 05:34:01;;;;;;;15.80;14.27;;;12.10;99.90;;;;;;5037044;28;20190;-55
2022/07/28 05:36:26;;;;;;;15.97;14.47;;;12.20;99.90;;;;;;5037038;28;20183;-55
2022/07/28 05:38:52;;;;;;;18.73;16.70;;;12.40;99.90;;;;;;5043871;28;20191;-56
2022/07/28 05:41:18;;;;;;;21.30;18.53;;;12.40;99.90;;;;;;5034484;28;20198;-55
2022/07/28 05:43:43;;;;;;;21.10;18.77;;;12.40;99.90;;;;;;5034461;28;20194;-56
2022/07/28 05:46:09;;;;;;;23.27;20.87;;;12.40;99.90;;;;;;5044784;28;20182;-54
2022/07/28 05:48:34;;;;;;;20.90;18.33;;;12.50;99.90;;;;;;5031341;28;20218;-56
2022/07/28 05:51:00;;;;;;;21.23;19.23;;;12.70;99.90;;;;;;5051105;28;20205;-54
2022/07/28 05:53:26;;;;;;;23.33;21.10;;;12.70;99.90;;;;;;5047168;28;20643;-55
2022/07/28 05:55:52;;;;;;;21.60;19.37;;;12.80;99.90;;;;;;5039911;28;20416;-54
2022/07/28 05:58:21;;;;;;;22.00;19.60;;;12.90;99.90;;;;;;5032504;28;20229;-56
2022/07/28 06:00:47;;;;;;;21.20;19.10;;;13.10;99.90;;;;;;5030507;28;20202;-56
2022/07/28 06:03:13;;;;;;;21.20;18.93;;;13.30;99.90;;;;;;5043094;28;20420;-55
2022/07/28 06:05:38;;;;;;;22.23;19.10;;;13.50;99.90;;;;;;5036223;28;20459;-56
2022/07/28 06:08:04;;;;;;;25.80;21.40;;;13.40;99.90;;;;;;5050400;28;20297;-53
2022/07/28 06:13:15;;;;;;;25.80;23.10;;;13.80;99.90;;;;;;5049508;28;20308;-56
2022/07/28 06:15:41;;;;;;;27.40;23.67;;;14.00;99.90;;;;;;5050645;28;20439;-51
2022/07/28 06:18:06;;;;;;;27.10;24.40;;;14.10;99.90;;;;;;5048264;28;20432;-54
2022/07/28 06:20:32;;;;;;;27.53;24.57;;;14.20;99.90;;;;;;5025270;28;20270;-56
2022/07/28 06:22:58;;;;;;;27.53;24.00;;;14.40;99.90;;;;;;5041002;28;20194;-54
2022/07/28 06:25:26;;;;;;;27.43;24.50;;;14.50;99.90;;;;;;5033761;28;20439;-55
2022/07/28 06:27:54;;;;;;;29.77;26.87;;;14.70;99.90;;;;;;5041178;28;20214;-55
2022/07/28 06:30:20;;;;;;;30.30;27.20;;;14.80;99.90;;;;;;5028397;28;20425;-55
2022/07/28 06:32:47;;;;;;;31.20;27.83;;;14.90;99.90;;;;;;5031582;28;20459;-56
2022/07/28 06:35:15;;;;;;;33.10;29.50;;;15.10;99.90;;;;;;5027991;28;20432;-55
2022/07/28 06:37:41;;;;;;;32.90;29.50;;;15.30;99.90;;;;;;5026792;28;20461;-55
2022/07/28 06:40:08;;;;;;;31.37;27.93;;;15.20;99.90;;;;;;5027890;28;20476;-56
2022/07/28 06:42:33;;;;;;;31.60;27.03;;;15.30;99.90;;;;;;5031369;28;20468;-51
2022/07/28 06:44:59;;;;;;;31.03;27.93;;;15.50;99.90;;;;;;5027568;28;20493;-54
2022/07/28 06:47:25;;;;;;;30.37;27.20;;;15.60;99.90;;;;;;5031484;28;20202;-57
2022/07/28 06:49:50;;;;;;;29.23;26.20;;;15.80;99.40;;;;;;5039024;28;20307;-53
2022/07/28 06:52:20;;;;;;;29.57;26.67;;;15.90;99.70;;;;;;5047516;28;20971;-55
2022/07/28 06:54:49;;;;;;;29.63;25.20;;;16.00;97.90;;;;;;5047038;28;20189;-55
2022/07/28 06:57:15;;;;;;;30.10;27.03;;;16.10;97.00;;;;;;5030088;28;20423;-55
2022/07/28 06:59:40;;;;;;;29.93;26.93;;;16.20;96.80;;;;;;5040476;28;20571;-54
2022/07/28 07:02:06;;;;;;;30.73;27.20;;;16.30;97.00;;;;;;5040883;28;20745;-54
2022/07/28 07:04:33;;;;;;;30.67;27.50;;;16.50;97.50;;;;;;5028095;28;20191;-53
2022/07/28 07:06:58;;;;;;;33.97;28.40;;;16.60;96.20;;;;;;5046399;28;20195;-51
2022/07/28 07:09:24;;;;;;;32.17;28.90;;;16.50;95.30;;;;;;5042572;28;20422;-53
2022/07/28 07:11:49;;;;;;;33.43;29.83;;;16.50;95.70;;;;;;5041376;28;20237;-53
2022/07/28 07:14:15;;;;;;;32.00;28.70;;;16.60;95.80;;;;;;5026649;28;20238;-53
2022/07/28 07:16:40;;;;;;;31.20;27.33;;;16.90;95.90;;;;;;5038968;28;20197;-55
2022/07/28 07:19:06;;;;;;;30.00;26.73;;;17.10;95.40;;;;;;5030830;28;20198;-56
2022/07/28 07:21:32;;;;;;;28.03;25.37;;;17.10;94.30;;;;;;5039100;28;20188;-53
2022/07/28 07:23:57;;;;;;;30.07;27.10;;;17.30;94.60;;;;;;5027056;28;20612;-52
2022/07/28 07:26:23;;;;;;;29.10;26.10;;;17.50;93.70;;;;;;5042158;28;20232;-52
2022/07/28 07:28:49;;;;;;;28.33;25.60;;;17.60;93.30;;;;;;5044470;28;20201;-54
2022/07/28 07:31:15;;;;;;;28.40;25.63;;;17.90;92.00;;;;;;5029459;28;20432;-56
2022/07/28 07:33:40;;;;;;;27.70;24.77;;;18.00;92.30;;;;;;5027244;28;21030;-54
2022/07/28 07:36:06;;;;;;;27.43;24.47;;;18.10;91.70;;;;;;5040340;28;20186;-57
2022/07/28 07:38:32;;;;;;;27.60;24.80;;;18.30;90.60;;;;;;5026313;28;20550;-52
2022/07/28 07:40:59;;;;;;;26.20;23.70;;;18.50;88.80;;;;;;5034335;28;20193;-49
2022/07/28 07:43:25;;;;;;;23.40;21.30;;;18.60;88.20;;;;;;5046847;28;20194;-55
2022/07/28 07:45:51;;;;;;;24.07;21.63;;;18.70;85.10;;;;;;5034548;28;20436;-54
2022/07/28 07:48:16;;;;;;;24.50;22.17;;;18.80;84.60;;;;;;5041391;28;20475;-54
2022/07/28 07:50:42;;;;;;;22.00;19.70;;;18.80;84.40;;;;;;5050869;28;20189;-55
2022/07/28 07:53:08;;;;;;;21.10;19.00;;;18.80;84.30;;;;;;5043807;28;20189;-56
2022/07/28 07:55:34;;;;;;;20.53;18.60;;;18.80;84.60;;;;;;5038257;28;20873;-56
2022/07/28 07:57:59;;;;;;;19.50;17.67;;;19.00;84.40;;;;;;5037489;28;20657;-56
2022/07/28 08:00:25;;;;;;;19.10;17.10;;;19.20;83.30;;;;;;5045136;28;20213;-56
2022/07/28 08:02:50;;;;;;;17.00;15.40;;;19.50;80.70;;;;;;5039307;28;20283;-56
2022/07/28 08:05:16;;;;;;;17.03;15.50;;;19.70;78.80;;;;;;5036272;28;20287;-55
2022/07/28 08:07:43;;;;;;;14.90;13.63;;;19.90;75.10;;;;;;5050581;28;20225;-52
2022/07/28 08:10:09;;;;;;;15.53;14.13;;;20.20;73.40;;;;;;5030668;28;20445;-54
2022/07/28 08:12:34;;;;;;;14.80;13.37;;;20.20;69.90;;;;;;5030547;28;20471;-55
2022/07/28 08:15:00;;;;;;;14.40;13.17;;;20.40;68.50;;;;;;5029456;28;20430;-53
2022/07/28 08:17:26;;;;;;;15.33;13.70;;;20.40;67.20;;;;;;5047345;28;20768;-53
2022/07/28 08:19:52;;;;;;;13.47;12.23;;;20.30;66.50;;;;;;5045041;28;20197;-54
2022/07/28 08:22:17;;;;;;;13.10;12.00;;;20.40;67.70;;;;;;5046717;28;20186;-55
2022/07/28 08:24:43;;;;;;;13.30;12.07;;;20.40;67.40;;;;;;5044862;28;20537;-56
2022/07/28 08:27:10;;;;;;;12.13;11.07;;;20.50;67.40;;;;;;5029468;28;20211;-54
2022/07/28 08:29:35;;;;;;;10.00;9.20;;;20.60;66.70;;;;;;5038117;28;20187;-51
2022/07/28 08:32:04;;;;;;;9.10;7.90;;;20.90;63.40;;;;;;5039676;28;20434;-56
2022/07/28 08:34:30;;;;;;;8.40;7.60;;;21.00;59.10;;;;;;5037344;28;20190;-53
2022/07/28 08:36:56;;;;;;;7.87;7.27;;;20.90;57.90;;;;;;5041165;28;21269;-56
2022/07/28 08:39:22;;;;;;;8.70;7.90;;;21.10;57.90;;;;;;5038537;28;20424;-53
2022/07/28 08:42:07;;;;;;;7.83;7.33;;;21.30;56.10;;;;;;5034488;28;20479;-54
2022/07/28 08:44:46;;;;;;;8.47;7.67;;;21.40;55.20;;;;;;5039636;28;20198;-54
2022/07/28 08:47:14;;;;;;;9.20;8.50;;;21.40;54.80;;;;;;5046154;28;20512;-52
2022/07/28 08:49:41;;;;;;;9.00;8.27;;;21.40;54.80;;;;;;5037924;28;20431;-55
2022/07/28 08:52:11;;;;;;;9.77;8.63;;;21.40;55.00;;;;;;5033220;28;20421;-56
2022/07/28 08:54:41;;;;;;;9.33;8.53;;;21.70;53.70;;;;;;5029712;28;20431;-53
2022/07/28 08:57:08;;;;;;;8.97;8.27;;;21.90;52.20;;;;;;5047817;28;20891;-54
2022/07/28 08:59:35;;;;;;;7.57;7.03;;;21.90;50.70;;;;;;5035017;28;20477;-52
2022/07/28 09:02:01;;;;;;;11.70;8.07;;;21.90;50.60;;;;;;5040226;28;20436;-55
2022/07/28 09:04:27;;;;;;;10.07;9.13;;;22.00;50.10;;;;;;5029782;28;20415;-53
2022/07/28 09:06:53;;;;;;;8.77;8.07;;;22.00;50.30;;;;;;5029233;28;20710;-53
2022/07/28 09:09:20;;;;;;;9.20;8.57;;;22.00;50.60;;;;;;5028997;28;20188;-56
2022/07/28 09:11:46;;;;;;;8.60;7.83;;;22.20;50.80;;;;;;5028429;28;20424;-54
2022/07/28 09:14:11;;;;;;;8.60;7.80;;;22.30;51.00;;;;;;5029658;28;20447;-56
2022/07/28 09:16:37;;;;;;;7.80;7.20;;;22.50;51.20;;;;;;5029743;28;20296;-53
2022/07/28 09:19:03;;;;;;;5.60;5.20;;;22.70;49.30;;;;;;5033747;28;20188;-51
2022/07/28 09:21:29;;;;;;;4.73;4.43;;;22.80;47.40;;;;;;5048748;28;20650;-55
2022/07/28 09:23:54;;;;;;;5.37;4.80;;;22.80;46.60;;;;;;5045407;28;20187;-52
2022/07/28 09:26:20;;;;;;;5.00;4.60;;;23.00;46.50;;;;;;5046945;28;20415;-55
2022/07/28 09:28:55;;;;;;;5.17;4.73;;;23.30;46.80;;;;;;5028060;28;20420;-50
2022/07/28 09:31:23;;;;;;;4.97;4.57;;;23.50;45.90;;;;;;5029022;28;20210;-56
2022/07/28 09:33:59;;;;;;;4.57;4.27;;;23.70;44.50;;;;;;5036892;28;20444;-54
2022/07/28 09:36:25;;;;;;;4.43;4.03;;;23.80;44.20;;;;;;5035324;28;20429;-52
2022/07/28 09:38:51;;;;;;;4.23;3.93;;;24.00;42.70;;;;;;5030313;28;21166;-56
2022/07/28 09:41:22;;;;;;;5.03;4.73;;;24.10;42.80;;;;;;5037829;28;20453;-52
2022/07/28 09:43:50;;;;;;;4.53;4.13;;;24.30;41.50;;;;;;5031498;28;20283;-53
2022/07/28 09:46:18;;;;;;;3.90;3.60;;;24.30;41.20;;;;;;5029106;28;20926;-54
2022/07/28 09:48:52;;;;;;;4.80;4.50;;;24.50;39.40;;;;;;5028057;28;20815;-52
2022/07/28 09:51:27;;;;;;;4.30;3.70;;;24.60;38.40;;;;;;5011080;28;20429;-54
2022/07/28 09:54:05;;;;;;;4.73;4.33;;;24.90;37.70;;;;;;5036558;28;20409;-50
2022/07/28 09:56:31;;;;;;;5.40;3.93;;;25.10;37.80;;;;;;5026103;28;20429;-56
2022/07/28 09:58:58;;;;;;;4.33;4.07;;;25.20;35.90;;;;;;5033065;28;20487;-55
2022/07/28 10:01:25;;;;;;;3.50;3.30;;;25.40;35.50;;;;;;5048629;28;20213;-54
2022/07/28 10:03:54;;;;;;;4.23;3.93;;;25.50;34.90;;;;;;5038253;28;20826;-54
2022/07/28 10:06:32;;;;;;;4.00;3.70;;;25.60;34.20;;;;;;5039892;28;20519;-54
2022/07/28 10:09:00;;;;;;;4.30;3.90;;;25.60;33.80;;;;;;5045097;28;20804;-54
2022/07/28 10:11:28;;;;;;;3.80;3.50;;;25.70;34.40;;;;;;5047746;28;20426;-54
2022/07/28 10:13:57;;;;;;;4.43;4.23;;;25.90;32.70;;;;;;5046995;28;20740;-52
2022/07/28 10:16:25;;;;;;;4.53;4.23;;;26.00;32.90;;;;;;5036456;28;20470;-55
2022/07/28 10:18:51;;;;;;;3.90;3.70;;;26.00;33.20;;;;;;5041883;28;20854;-50
2022/07/28 10:21:19;;;;;;;4.60;4.30;;;26.20;33.20;;;;;;5038877;28;20432;-54
2022/07/28 10:24:05;;;;;;;4.27;4.07;;;26.30;30.90;;;;;;5043247;28;20189;-55
2022/07/28 10:26:36;;;;;;;4.63;4.30;;;26.40;31.40;;;;;;5041166;28;20494;-54
2022/07/28 10:29:05;;;;;;;3.77;3.57;;;26.50;31.30;;;;;;5043485;28;20600;-56
2022/07/28 10:31:39;;;;;;;4.70;4.27;;;26.60;31.30;;;;;;5027646;28;20424;-55
2022/07/28 10:34:09;;;;;;;4.30;4.03;;;26.70;31.20;;;;;;5038640;28;20426;-53
2022/07/28 10:36:36;;;;;;;4.47;4.10;;;26.70;31.50;;;;;;5038831;28;20431;-54
2022/07/28 10:39:09;;;;;;;4.73;4.43;;;27.00;31.00;;;;;;5032350;28;20438;-55
2022/07/28 10:41:39;;;;;;;4.37;4.03;;;27.10;29.70;;;;;;5027873;28;20428;-56
2022/07/28 10:44:06;;;;;;;4.73;4.30;;;27.10;29.50;;;;;;5045582;28;20424;-54
2022/07/28 10:46:32;;;;;;;4.20;3.90;;;27.20;30.40;;;;;;5040007;28;20440;-55
2022/07/28 10:48:59;;;;;;;4.27;3.97;;;27.30;29.00;;;;;;5047412;28;20539;-53
2022/07/28 10:51:26;;;;;;;4.47;4.17;;;27.40;28.10;;;;;;5042147;28;20447;-53
2022/07/28 10:54:09;;;;;;;4.20;3.90;;;27.30;28.40;;;;;;5033162;28;20778;-52
2022/07/28 10:56:46;;;;;;;6.43;4.43;;;27.40;27.70;;;;;;5029492;28;20466;-55
2022/07/28 10:59:21;;;;;;;4.10;3.90;;;27.40;28.30;;;;;;5016255;28;20478;-55
2022/07/28 11:01:46;;;;;;;3.67;3.47;;;27.50;28.10;;;;;;5028951;28;20424;-50
2022/07/28 11:04:40;;;;;;;4.17;3.90;;;27.70;28.20;;;;;;5046525;28;20930;-54
2022/07/28 11:07:13;;;;;;;4.40;4.00;;;27.70;27.20;;;;;;5045742;28;20192;-57
2022/07/28 11:09:39;;;;;;;4.63;4.27;;;27.80;27.90;;;;;;5031738;28;20479;-53
2022/07/28 11:12:05;;;;;;;4.40;4.00;;;28.00;26.80;;;;;;5033576;28;20837;-52
2022/07/28 11:14:34;;;;;;;3.90;3.70;;;28.10;27.20;;;;;;5026647;28;20663;-53
2022/07/28 11:17:02;;;;;;;4.53;4.33;;;28.30;26.50;;;;;;5040064;28;20453;-53
2022/07/28 11:19:44;;;;;;;4.90;4.50;;;28.40;26.70;;;;;;5029829;28;20845;-56
2022/07/28 11:22:20;;;;;;;4.70;4.40;;;28.40;27.10;;;;;;5039343;28;20450;-53
2022/07/28 11:25:00;;;;;;;6.87;4.27;;;28.40;26.40;;;;;;5026794;28;20432;-54
2022/07/28 11:27:41;;;;;;;4.40;4.20;;;28.40;26.60;;;;;;5038644;28;20465;-55
2022/07/28 11:30:31;;;;;;;4.73;4.10;;;28.30;26.10;;;;;;5025788;28;20540;-56
2022/07/28 11:33:01;;;;;;;4.80;4.50;;;28.30;26.40;;;;;;5025570;28;20430;-57
2022/07/28 11:35:30;;;;;;;4.97;4.50;;;28.40;26.10;;;;;;5040246;28;20430;-55
2022/07/28 11:38:02;;;;;;;5.33;4.93;;;28.50;25.90;;;;;;5025356;28;20454;-53
2022/07/28 11:40:38;;;;;;;4.37;4.17;;;28.50;25.60;;;;;;5043563;28;20420;-53
2022/07/28 11:43:22;;;;;;;4.97;4.57;;;28.60;26.10;;;;;;5038726;28;20440;-55
2022/07/28 11:46:00;;;;;;;5.53;4.07;;;28.70;25.60;;;;;;5046099;28;20424;-55
2022/07/28 11:48:26;;;;;;;5.10;4.70;;;28.80;25.00;;;;;;5034661;28;20466;-54
2022/07/28 11:51:04;;;;;;;4.67;4.47;;;28.80;25.40;;;;;;5034614;28;20479;-56
2022/07/28 11:53:42;;;;;;;4.60;4.30;;;28.90;25.60;;;;;;5026026;28;20441;-56
2022/07/28 11:56:21;;;;;;;4.80;4.40;;;29.20;25.00;;;;;;5024938;28;20424;-55
2022/07/28 11:58:58;;;;;;;4.47;4.20;;;29.40;24.50;;;;;;5024137;28;20957;-55
2022/07/28 12:01:24;;;;;;;5.27;4.97;;;29.50;24.70;;;;;;5027588;28;20427;-55
2022/07/28 12:03:51;;;;;;;4.90;4.50;;;29.50;24.30;;;;;;5027383;28;20757;-56
2022/07/28 12:06:19;;;;;;;4.20;4.00;;;29.50;24.00;;;;;;5023833;28;20195;-56
2022/07/28 12:09:03;;;;;;;4.67;4.27;;;29.40;24.10;;;;;;5027230;28;20464;-56
2022/07/28 12:11:37;;;;;;;4.80;4.50;;;29.50;23.60;;;;;;5025465;28;20427;-55
2022/07/28 12:14:09;;;;;;;4.80;4.50;;;29.60;23.10;;;;;;5025507;28;20841;-50
2022/07/28 12:16:38;;;;;;;4.43;4.13;;;29.50;22.50;;;;;;5026736;28;20425;-53
2022/07/28 12:19:05;;;;;;;4.30;4.00;;;29.50;23.40;;;;;;5031171;28;20471;-55
2022/07/28 12:21:44;;;;;;;4.50;4.30;;;29.60;22.20;;;;;;5046773;28;20445;-57
2022/07/28 12:24:14;;;;;;;4.83;4.53;;;29.70;22.20;;;;;;5027435;28;20452;-57
2022/07/28 12:26:42;;;;;;;4.50;4.10;;;29.90;21.50;;;;;;5038802;28;20440;-55
2022/07/28 12:29:12;;;;;;;4.40;4.20;;;29.60;21.40;;;;;;5028571;28;20529;-56
2022/07/28 12:31:40;;;;;;;4.60;4.40;;;29.60;23.10;;;;;;5035863;28;20448;-54
2022/07/28 12:34:08;;;;;;;4.50;4.30;;;29.90;22.50;;;;;;5031663;28;20527;-54
2022/07/28 12:36:35;;;;;;;4.93;4.53;;;30.10;22.10;;;;;;5030137;28;20855;-54
2022/07/28 12:39:04;;;;;;;4.93;4.53;;;30.40;23.10;;;;;;5035574;28;20562;-53
2022/07/28 12:41:37;;;;;;;4.60;4.40;;;30.70;22.50;;;;;;5030419;28;20794;-57
2022/07/28 12:44:03;;;;;;;4.60;4.30;;;30.90;21.90;;;;;;5041200;28;20448;-54
2022/07/28 12:46:31;;;;;;;5.13;4.73;;;31.10;21.20;;;;;;5031745;28;20429;-54
2022/07/28 12:48:57;;;;;;;4.43;4.00;;;31.30;21.20;;;;;;5043206;28;20500;-52
2022/07/28 12:51:40;;;;;;;4.90;4.60;;;31.40;21.60;;;;;;5029648;28;20425;-51
2022/07/28 12:54:08;;;;;;;4.50;4.10;;;31.50;20.40;;;;;;5033135;28;20516;-54
2022/07/28 12:56:48;;;;;;;5.10;4.70;;;31.50;20.70;;;;;;5033273;28;20440;-55